createdAt,value
2022-10-05T00:01:19.646Z,3.08
2022-10-05T00:03:46.088Z,3.20
2022-10-05T00:06:12.503Z,3.70
2022-10-05T00:08:38.902Z,3.42
2022-10-05T00:11:05.294Z,2.97
2022-10-05T00:13:31.692Z,3.08
2022-10-05T00:15:58.089Z,2.67
2022-10-05T00:18:24.464Z,3.20
2022-10-05T00:20:50.857Z,3.25
2022-10-05T00:23:17.276Z,2.97
2022-10-05T00:25:43.674Z,2.70
2022-10-05T00:28:10.073Z,2.88
2022-10-05T00:30:36.526Z,3.10
2022-10-05T00:33:02.922Z,3.25
2022-10-05T00:35:29.512Z,3.20
2022-10-05T00:37:56.016Z,2.63
2022-10-05T00:40:22.404Z,2.70
2022-10-05T00:42:48.833Z,2.40
2022-10-05T00:45:15.248Z,2.70
2022-10-05T00:47:41.630Z,2.33
2022-10-05T00:50:08.056Z,2.28
2022-10-05T00:52:34.468Z,2.30
2022-10-05T00:55:00.881Z,2.67
2022-10-05T00:57:27.250Z,2.10
2022-10-05T00:59:53.662Z,2.40
2022-10-05T01:02:20.117Z,2.35
2022-10-05T01:04:46.567Z,2.30
2022-10-05T01:07:12.982Z,2.28
2022-10-05T01:09:39.366Z,2.25
2022-10-05T01:12:05.753Z,2.28
2022-10-05T01:14:32.127Z,2.15
2022-10-05T01:16:58.594Z,1.80
2022-10-05T01:19:24.990Z,1.60
2022-10-05T01:21:51.398Z,1.63
2022-10-05T01:24:17.773Z,1.60
2022-10-05T01:26:44.546Z,1.85
2022-10-05T01:29:11.164Z,1.65
2022-10-05T01:31:37.641Z,1.90
2022-10-05T01:34:07.836Z,1.70
2022-10-05T01:36:37.024Z,1.67
2022-10-05T01:39:03.415Z,1.70
2022-10-05T01:41:29.788Z,1.40
2022-10-05T01:43:56.188Z,1.40
2022-10-05T01:46:22.682Z,1.40
2022-10-05T01:48:49.149Z,1.50
2022-10-05T01:51:15.531Z,1.83
2022-10-05T01:53:41.930Z,1.30
2022-10-05T01:56:08.321Z,1.55
2022-10-05T01:58:34.829Z,1.30
2022-10-05T02:01:01.274Z,1.20
2022-10-05T02:03:27.720Z,1.50
2022-10-05T02:05:54.112Z,1.40
2022-10-05T02:08:20.514Z,1.52
2022-10-05T02:10:46.899Z,1.08
2022-10-05T02:13:13.318Z,1.10
2022-10-05T02:15:39.760Z,1.30
2022-10-05T02:18:06.289Z,1.48
2022-10-05T02:20:32.686Z,1.17
2022-10-05T02:22:59.076Z,1.33
2022-10-05T02:25:25.450Z,1.33
2022-10-05T02:27:51.867Z,1.60
2022-10-05T02:30:18.252Z,1.30
2022-10-05T02:32:44.645Z,1.40
2022-10-05T02:35:11.126Z,1.50
2022-10-05T02:37:37.507Z,1.10
2022-10-05T02:40:03.916Z,1.27
2022-10-05T02:42:30.303Z,1.23
2022-10-05T02:44:56.693Z,1.25
2022-10-05T02:47:23.112Z,1.40
2022-10-05T02:49:49.648Z,1.10
2022-10-05T02:52:16.048Z,1.23
2022-10-05T02:54:42.443Z,1.42
2022-10-05T02:57:08.830Z,1.23
2022-10-05T02:59:35.231Z,1.08
2022-10-05T03:02:01.664Z,1.30
2022-10-05T03:04:28.094Z,1.20
2022-10-05T03:06:54.490Z,1.23
2022-10-05T03:09:20.898Z,1.10
2022-10-05T03:11:47.284Z,1.25
2022-10-05T03:14:13.706Z,1.20
2022-10-05T03:16:40.088Z,1.13
2022-10-05T03:19:06.468Z,1.40
2022-10-05T03:21:32.864Z,1.25
2022-10-05T03:23:59.290Z,1.02
2022-10-05T03:26:25.702Z,1.38
2022-10-05T03:28:52.075Z,1.08
2022-10-05T03:31:18.525Z,2.35
2022-10-05T03:33:44.968Z,1.15
2022-10-05T03:36:11.373Z,1.08
2022-10-05T03:38:37.764Z,1.50
2022-10-05T03:41:04.160Z,1.45
2022-10-05T03:43:30.542Z,1.10
2022-10-05T03:45:56.981Z,1.50
2022-10-05T03:48:23.397Z,1.10
2022-10-05T03:50:49.821Z,1.20
2022-10-05T03:53:16.201Z,1.10
2022-10-05T03:55:42.625Z,1.10
2022-10-05T03:58:09.007Z,1.35
2022-10-05T04:00:35.414Z,1.20
2022-10-05T04:03:01.871Z,1.27
2022-10-05T04:05:28.299Z,1.27
2022-10-05T04:07:54.743Z,1.40
2022-10-05T04:10:21.125Z,1.40
2022-10-05T04:12:47.532Z,2.55
2022-10-05T04:15:18.001Z,1.45
2022-10-05T04:17:45.358Z,1.20
2022-10-05T04:20:11.755Z,1.23
2022-10-05T04:22:38.188Z,1.35
2022-10-05T04:25:04.593Z,1.00
2022-10-05T04:27:30.998Z,1.50
2022-10-05T04:29:57.387Z,1.23
2022-10-05T04:32:23.796Z,1.00
2022-10-05T04:34:50.173Z,0.80
2022-10-05T04:37:16.583Z,1.00
2022-10-05T04:39:42.958Z,1.00
2022-10-05T04:42:09.394Z,0.80
2022-10-05T04:44:35.777Z,1.20
2022-10-05T04:47:02.229Z,1.38
2022-10-05T04:49:28.676Z,1.00
2022-10-05T04:51:55.067Z,1.35
2022-10-05T04:54:21.454Z,1.20
2022-10-05T04:56:48.018Z,0.90
2022-10-05T04:59:14.742Z,1.00
2022-10-05T05:01:41.150Z,1.02
2022-10-05T05:04:07.568Z,1.60
2022-10-05T05:06:33.972Z,1.30
2022-10-05T05:09:00.365Z,1.00
2022-10-05T05:11:26.739Z,1.20
2022-10-05T05:13:53.211Z,0.90
2022-10-05T05:16:19.647Z,0.80
2022-10-05T05:18:46.077Z,1.20
2022-10-05T05:21:12.464Z,1.35
2022-10-05T05:23:38.859Z,1.10
2022-10-05T05:26:05.234Z,1.20
2022-10-05T05:28:31.765Z,1.10
2022-10-05T05:30:58.270Z,1.92
2022-10-05T05:33:24.730Z,2.60
2022-10-05T05:35:51.117Z,1.88
2022-10-05T05:38:17.509Z,1.35
2022-10-05T05:40:43.884Z,0.98
2022-10-05T05:43:10.333Z,1.05
2022-10-05T05:45:36.733Z,1.25
2022-10-05T05:48:03.115Z,0.93
2022-10-05T05:50:29.531Z,1.80
2022-10-05T05:52:55.906Z,1.15
2022-10-05T05:55:24.402Z,1.42
2022-10-05T05:57:54.094Z,1.15
2022-10-05T06:00:20.514Z,1.10
2022-10-05T06:02:46.991Z,1.42
2022-10-05T06:05:13.587Z,1.70
2022-10-05T06:07:39.965Z,1.10
2022-10-05T06:10:06.350Z,1.05
2022-10-05T06:12:32.777Z,1.10
2022-10-05T06:14:59.157Z,1.30
2022-10-05T06:17:25.546Z,1.20
2022-10-05T06:19:51.947Z,0.88
2022-10-05T06:22:18.350Z,1.27
2022-10-05T06:24:44.735Z,1.20
2022-10-05T06:27:11.144Z,1.02
2022-10-05T06:29:37.528Z,1.00
2022-10-05T06:32:03.979Z,1.20
2022-10-05T06:34:30.402Z,1.20
2022-10-05T06:36:57.005Z,1.77
2022-10-05T06:39:23.415Z,1.55
2022-10-05T06:41:49.822Z,0.55
2022-10-05T06:44:16.229Z,1.02
2022-10-05T06:46:42.655Z,1.60
2022-10-05T06:49:09.060Z,0.80
2022-10-05T06:51:35.572Z,1.10
2022-10-05T06:54:01.970Z,0.70
2022-10-05T06:56:28.361Z,1.00
2022-10-05T06:58:54.791Z,0.90
2022-10-05T07:01:21.217Z,0.95
2022-10-05T07:03:47.710Z,0.93
2022-10-05T07:06:14.092Z,0.82
2022-10-05T07:08:40.483Z,0.57
2022-10-05T07:11:06.866Z,0.65
2022-10-05T07:13:33.311Z,0.80
2022-10-05T07:15:59.721Z,0.60
2022-10-05T07:18:26.167Z,0.77
2022-10-05T07:20:52.574Z,0.73
2022-10-05T07:23:18.965Z,0.60
2022-10-05T07:25:45.347Z,0.93
2022-10-05T07:28:11.757Z,0.70
2022-10-05T07:30:38.262Z,0.90
2022-10-05T07:33:04.693Z,0.80
2022-10-05T07:35:31.071Z,0.70
2022-10-05T07:37:57.465Z,0.60
2022-10-05T07:40:23.859Z,0.70
2022-10-05T07:42:52.342Z,0.70
2022-10-05T07:45:19.071Z,0.80
2022-10-05T07:47:45.459Z,1.00
2022-10-05T07:50:11.870Z,0.70
2022-10-05T07:52:38.265Z,0.50
2022-10-05T07:55:04.677Z,0.50
2022-10-05T07:57:31.078Z,0.60
2022-10-05T07:59:57.690Z,0.73
2022-10-05T08:02:24.173Z,0.60
2022-10-05T08:04:50.693Z,0.40
2022-10-05T08:07:17.129Z,0.70
2022-10-05T08:09:43.563Z,0.73
2022-10-05T08:12:10.740Z,0.60
2022-10-05T08:14:37.140Z,0.90
2022-10-05T08:17:03.519Z,0.70
2022-10-05T08:19:29.907Z,0.50
2022-10-05T08:21:56.323Z,0.60
2022-10-05T08:24:22.729Z,0.70
2022-10-05T08:26:49.112Z,0.60
2022-10-05T08:29:15.505Z,0.55
2022-10-05T08:31:41.887Z,0.50
2022-10-05T08:34:08.281Z,0.45
2022-10-05T08:36:34.681Z,0.70
2022-10-05T08:39:01.058Z,0.50
2022-10-05T08:41:27.453Z,0.50
2022-10-05T08:43:53.827Z,0.70
2022-10-05T08:46:20.253Z,0.50
2022-10-05T08:48:46.651Z,0.88
2022-10-05T08:51:13.068Z,0.98
2022-10-05T08:53:39.462Z,0.63
2022-10-05T08:56:05.907Z,0.80
2022-10-05T08:58:32.278Z,0.80
2022-10-05T09:00:58.733Z,0.70
2022-10-05T09:03:25.194Z,0.60
2022-10-05T09:05:51.598Z,0.77
2022-10-05T09:08:17.970Z,0.50
2022-10-05T09:10:44.396Z,0.50
2022-10-05T09:13:10.786Z,0.60
2022-10-05T09:15:37.240Z,0.80
2022-10-05T09:18:03.628Z,1.00
2022-10-05T09:20:30.021Z,0.40
2022-10-05T09:22:56.443Z,0.60
2022-10-05T09:25:22.926Z,0.75
2022-10-05T09:27:49.307Z,0.65
2022-10-05T09:30:15.684Z,0.70
2022-10-05T09:32:42.097Z,0.52
2022-10-05T09:35:08.474Z,0.70
2022-10-05T09:37:34.929Z,0.60
2022-10-05T09:40:02.384Z,0.70
2022-10-05T09:42:28.797Z,0.50
2022-10-05T09:44:55.182Z,0.70
2022-10-05T09:47:21.592Z,0.52
2022-10-05T09:49:47.983Z,0.80
2022-10-05T09:52:18.775Z,0.55
2022-10-05T09:54:45.529Z,0.77
2022-10-05T09:57:11.968Z,0.57
2022-10-05T09:59:38.357Z,0.55
2022-10-05T10:02:04.787Z,0.73
2022-10-05T10:04:31.235Z,0.45
2022-10-05T10:06:57.835Z,0.65
2022-10-05T10:09:24.314Z,0.65
2022-10-05T10:11:50.732Z,0.70
2022-10-05T10:14:17.164Z,0.60
2022-10-05T10:16:43.550Z,0.90
2022-10-05T10:19:09.982Z,0.60
2022-10-05T10:21:36.349Z,0.50
2022-10-05T10:24:02.759Z,0.60
2022-10-05T10:26:29.137Z,0.82
2022-10-05T10:28:55.557Z,0.70
2022-10-05T10:31:21.952Z,0.70
2022-10-05T10:33:48.422Z,0.80
2022-10-05T10:36:14.793Z,0.70
2022-10-05T10:38:41.198Z,0.80
2022-10-05T10:41:07.596Z,0.77
2022-10-05T10:43:34.032Z,0.60
2022-10-05T10:46:00.459Z,0.70
2022-10-05T10:48:26.909Z,0.85
2022-10-05T10:50:53.296Z,0.60
2022-10-05T10:53:19.698Z,0.73
2022-10-05T10:55:46.084Z,0.75
2022-10-05T10:58:15.867Z,0.70
2022-10-05T11:00:42.686Z,0.60
2022-10-05T11:03:09.145Z,0.68
2022-10-05T11:05:35.595Z,0.60
2022-10-05T11:08:01.982Z,0.70
2022-10-05T11:10:28.392Z,0.60
2022-10-05T11:12:54.837Z,0.75
2022-10-05T11:15:21.252Z,0.68
2022-10-05T11:17:47.655Z,0.65
2022-10-05T11:20:14.082Z,0.70
2022-10-05T11:22:40.461Z,0.80
2022-10-05T11:25:06.889Z,0.60
2022-10-05T11:27:33.260Z,0.70
2022-10-05T11:29:59.694Z,0.70
2022-10-05T11:32:26.088Z,0.70
2022-10-05T11:34:52.481Z,0.80
2022-10-05T11:37:18.921Z,0.70
2022-10-05T11:39:45.312Z,0.80
2022-10-05T11:42:11.685Z,0.52
2022-10-05T11:44:38.078Z,0.80
2022-10-05T11:47:04.496Z,0.70
2022-10-05T11:49:30.879Z,0.80
2022-10-05T11:51:57.298Z,0.60
2022-10-05T11:54:23.675Z,0.75
2022-10-05T11:56:52.328Z,0.70
2022-10-05T11:59:21.024Z,0.90
2022-10-05T12:01:47.416Z,0.75
2022-10-05T12:04:13.884Z,0.60
2022-10-05T12:06:40.314Z,0.70
2022-10-05T12:09:06.699Z,0.43
2022-10-05T12:11:33.098Z,0.60
2022-10-05T12:13:59.495Z,0.80
2022-10-05T12:16:26.071Z,0.82
2022-10-05T12:18:52.466Z,0.50
2022-10-05T12:21:18.860Z,0.55
2022-10-05T12:23:45.236Z,0.52
2022-10-05T12:26:11.668Z,0.65
2022-10-05T12:28:38.045Z,0.77
2022-10-05T12:31:04.494Z,0.70
2022-10-05T12:33:30.969Z,0.60
2022-10-05T12:35:57.363Z,0.70
2022-10-05T12:38:23.819Z,0.63
2022-10-05T12:40:50.249Z,0.60
2022-10-05T12:43:16.642Z,0.70
2022-10-05T12:45:43.050Z,0.50
2022-10-05T12:48:09.489Z,0.68
2022-10-05T12:50:35.869Z,0.60
2022-10-05T12:53:02.270Z,0.50
2022-10-05T12:55:28.653Z,0.60
2022-10-05T12:57:55.054Z,0.50
2022-10-05T13:00:23.159Z,0.60
2022-10-05T13:02:49.935Z,0.70
2022-10-05T13:05:16.344Z,0.63
2022-10-05T13:07:42.738Z,0.88
2022-10-05T13:10:09.161Z,0.80
2022-10-05T13:12:35.557Z,0.50
2022-10-05T13:15:01.959Z,0.70
2022-10-05T13:17:28.358Z,0.65
2022-10-05T13:19:54.733Z,0.60
2022-10-05T13:22:21.122Z,0.70
2022-10-05T13:24:47.498Z,0.68
2022-10-05T13:27:13.904Z,0.65
2022-10-05T13:29:40.284Z,0.70
2022-10-05T13:32:06.686Z,0.55
2022-10-05T13:34:33.085Z,0.73
2022-10-05T13:36:59.465Z,0.65
2022-10-05T13:39:25.872Z,0.60
2022-10-05T13:41:52.254Z,0.60
2022-10-05T13:44:18.656Z,0.52
2022-10-05T13:46:45.037Z,0.60
2022-10-05T13:49:11.451Z,0.50
2022-10-05T13:51:37.865Z,0.50
2022-10-05T13:54:04.297Z,0.63
2022-10-05T13:56:30.676Z,0.55
2022-10-05T13:58:57.078Z,0.73
2022-10-05T14:01:23.467Z,0.70
2022-10-05T14:03:50.036Z,0.73
2022-10-05T14:06:16.424Z,0.50
2022-10-05T14:08:42.817Z,0.60
2022-10-05T14:11:09.202Z,0.60
2022-10-05T14:13:35.610Z,0.60
2022-10-05T14:16:02.074Z,0.60
2022-10-05T14:18:28.544Z,0.60
2022-10-05T14:20:54.920Z,0.60
2022-10-05T14:23:22.455Z,1.40
2022-10-05T14:25:49.174Z,0.50
2022-10-05T14:28:15.601Z,0.65
2022-10-05T14:30:42.037Z,0.47
2022-10-05T14:33:08.435Z,0.60
2022-10-05T14:35:34.874Z,0.65
2022-10-05T14:38:01.261Z,0.47
2022-10-05T14:40:27.667Z,0.60
2022-10-05T14:42:54.038Z,0.70
2022-10-05T14:45:20.439Z,0.60
2022-10-05T14:47:46.835Z,0.60
2022-10-05T14:50:13.239Z,0.60
2022-10-05T14:52:39.621Z,0.60
2022-10-05T14:55:06.043Z,0.60
2022-10-05T14:57:32.429Z,0.63
2022-10-05T14:59:58.839Z,0.70
2022-10-05T15:02:25.272Z,0.60
2022-10-05T15:04:51.754Z,0.93
2022-10-05T15:07:18.139Z,0.40
2022-10-05T15:09:44.542Z,0.70
2022-10-05T15:12:10.928Z,1.33
2022-10-05T15:14:37.429Z,0.65
2022-10-05T15:17:03.902Z,0.80
2022-10-05T15:19:30.393Z,0.65
2022-10-05T15:21:56.900Z,0.68
2022-10-05T15:24:23.304Z,0.57
2022-10-05T15:26:49.702Z,0.60
2022-10-05T15:29:16.129Z,0.90
2022-10-05T15:31:42.531Z,0.63
2022-10-05T15:34:08.917Z,0.88
2022-10-05T15:36:35.321Z,0.70
2022-10-05T15:39:01.715Z,0.75
2022-10-05T15:41:28.108Z,1.13
2022-10-05T15:43:54.489Z,1.30
2022-10-05T15:46:20.941Z,1.35
2022-10-05T15:48:47.364Z,1.23
2022-10-05T15:51:13.815Z,1.45
2022-10-05T15:53:40.191Z,0.82
2022-10-05T15:56:06.600Z,1.70
2022-10-05T15:58:33.002Z,1.33
2022-10-05T16:00:59.495Z,0.77
2022-10-05T16:03:25.922Z,1.10
2022-10-05T16:05:52.317Z,0.82
2022-10-05T16:08:18.727Z,0.52
2022-10-05T16:10:45.110Z,0.70
2022-10-05T16:13:11.513Z,0.85
2022-10-05T16:15:37.904Z,0.60
2022-10-05T16:18:04.306Z,0.70
2022-10-05T16:20:30.732Z,0.80
2022-10-05T16:22:57.136Z,0.50
2022-10-05T16:25:23.534Z,0.60
2022-10-05T16:27:49.997Z,0.63
2022-10-05T16:30:16.396Z,0.63
2022-10-05T16:32:42.797Z,0.77
2022-10-05T16:35:09.180Z,1.17
2022-10-05T16:37:35.630Z,1.08
2022-10-05T16:40:02.021Z,1.30
2022-10-05T16:42:28.426Z,1.65
2022-10-05T16:44:54.813Z,2.42
2022-10-05T16:47:25.161Z,2.38
2022-10-05T16:49:53.793Z,2.57
2022-10-05T16:52:20.218Z,2.25
2022-10-05T16:54:48.066Z,2.25
2022-10-05T16:57:14.672Z,1.90
2022-10-05T16:59:41.055Z,1.85
2022-10-05T17:02:07.502Z,1.60
2022-10-05T17:04:34.004Z,1.70
2022-10-05T17:07:00.383Z,1.83
2022-10-05T17:09:26.773Z,2.20
2022-10-05T17:11:53.150Z,1.98
2022-10-05T17:14:19.555Z,1.90
2022-10-05T17:16:45.915Z,2.83
2022-10-05T17:19:12.363Z,2.60
2022-10-05T17:21:38.752Z,3.00
2022-10-05T17:24:05.155Z,3.40
2022-10-05T17:26:31.524Z,3.42
2022-10-05T17:28:57.911Z,3.33
2022-10-05T17:31:24.338Z,2.92
2022-10-05T17:33:50.746Z,3.00
2022-10-05T17:36:17.128Z,3.10
2022-10-05T17:38:43.543Z,2.60
2022-10-05T17:41:09.911Z,4.10
2022-10-05T17:43:36.289Z,16.25
2022-10-05T17:46:02.791Z,5.10
2022-10-05T17:48:29.196Z,3.35
2022-10-05T17:50:55.590Z,4.20
2022-10-05T17:53:21.984Z,3.42
2022-10-05T17:55:48.441Z,3.60
2022-10-05T17:58:14.825Z,3.13
2022-10-05T18:00:41.235Z,2.17
2022-10-05T18:03:07.687Z,2.13
2022-10-05T18:05:34.131Z,2.85
2022-10-05T18:08:00.536Z,1.63
2022-10-05T18:10:26.941Z,2.33
2022-10-05T18:12:53.344Z,1.80
2022-10-05T18:15:19.725Z,2.10
2022-10-05T18:17:46.126Z,2.80
2022-10-05T18:20:12.520Z,2.20
2022-10-05T18:22:38.925Z,2.30
2022-10-05T18:25:05.320Z,3.15
2022-10-05T18:27:31.759Z,2.70
2022-10-05T18:29:58.161Z,3.53
2022-10-05T18:32:24.567Z,3.40
2022-10-05T18:34:50.953Z,2.30
2022-10-05T18:39:51.430Z,2.80
2022-10-05T18:42:17.843Z,2.50
2022-10-05T18:44:44.217Z,2.78
2022-10-05T18:47:10.630Z,2.20
2022-10-05T18:49:37.024Z,2.08
2022-10-05T18:52:03.417Z,2.65
2022-10-05T18:54:29.793Z,3.53
2022-10-05T18:56:56.199Z,3.58
2022-10-05T18:59:22.576Z,2.78
2022-10-05T19:01:49.078Z,3.10
2022-10-05T19:04:15.546Z,3.25
2022-10-05T19:06:41.958Z,3.70
2022-10-05T19:09:08.353Z,4.43
2022-10-05T19:11:34.745Z,5.15
2022-10-05T19:14:01.161Z,4.85
2022-10-05T19:16:27.678Z,4.32
2022-10-05T19:18:54.217Z,3.58
2022-10-05T19:21:20.603Z,2.35
2022-10-05T19:23:47.014Z,4.97
2022-10-05T19:26:13.391Z,3.50
2022-10-05T19:28:39.859Z,2.80
2022-10-05T19:31:06.548Z,2.25
2022-10-05T19:33:32.986Z,1.90
2022-10-05T19:35:59.380Z,2.30
2022-10-05T19:38:25.784Z,2.00
2022-10-05T19:40:52.177Z,2.40
2022-10-05T19:43:18.598Z,2.38
2022-10-05T19:45:44.986Z,2.78
2022-10-05T19:48:11.392Z,2.92
2022-10-05T19:50:37.770Z,3.00
2022-10-05T19:53:04.162Z,3.17
2022-10-05T19:55:30.560Z,3.58
2022-10-05T19:57:56.950Z,2.90
2022-10-05T20:00:23.350Z,3.60
2022-10-05T20:02:49.776Z,3.22
2022-10-05T20:05:16.178Z,3.58
2022-10-05T20:07:42.572Z,2.95
2022-10-05T20:10:08.968Z,2.78
2022-10-05T20:12:35.348Z,2.33
2022-10-05T20:15:01.745Z,2.38
2022-10-05T20:17:28.168Z,2.65
2022-10-05T20:19:54.645Z,2.05
2022-10-05T20:22:21.303Z,2.15
2022-10-05T20:24:47.821Z,3.10
2022-10-05T20:27:16.129Z,2.17
2022-10-05T20:29:42.850Z,2.05
2022-10-05T20:32:09.243Z,1.98
2022-10-05T20:34:35.645Z,2.00
2022-10-05T20:37:02.022Z,1.70
2022-10-05T20:39:28.429Z,1.90
2022-10-05T20:41:54.849Z,1.50
2022-10-05T20:44:21.225Z,1.70
2022-10-05T20:46:47.706Z,1.30
2022-10-05T20:49:14.163Z,1.67
2022-10-05T20:51:40.562Z,1.60
2022-10-05T20:54:06.989Z,1.50
2022-10-05T20:56:33.385Z,1.60
2022-10-05T20:58:59.757Z,1.25
2022-10-05T21:01:26.263Z,1.40
2022-10-05T21:03:52.727Z,1.50
2022-10-05T21:06:19.119Z,1.30
2022-10-05T21:08:45.510Z,1.23
2022-10-05T21:11:11.924Z,1.02
2022-10-05T21:13:38.315Z,1.20
2022-10-05T21:16:04.762Z,1.08
2022-10-05T21:18:31.437Z,1.00
2022-10-05T21:21:02.082Z,1.20
2022-10-05T21:23:28.792Z,1.10
2022-10-05T21:25:55.177Z,1.13
2022-10-05T21:28:21.582Z,1.50
2022-10-05T21:30:48.043Z,1.20
2022-10-05T21:33:14.427Z,1.35
2022-10-05T21:35:40.961Z,1.15
2022-10-05T21:38:07.396Z,1.25
2022-10-05T21:40:33.770Z,1.70
2022-10-05T21:43:00.205Z,1.50
2022-10-05T21:45:26.685Z,1.30
2022-10-05T21:47:53.189Z,1.00
2022-10-05T21:50:19.563Z,1.10
2022-10-05T21:52:45.955Z,1.38
2022-10-05T21:55:12.330Z,1.17
2022-10-05T21:57:38.709Z,1.15
2022-10-05T22:00:05.091Z,1.00
2022-10-05T22:02:31.490Z,1.00
2022-10-05T22:04:57.881Z,1.30
2022-10-05T22:07:24.286Z,1.15
2022-10-05T22:09:50.665Z,1.40
2022-10-05T22:12:17.051Z,1.35
2022-10-05T22:14:43.439Z,1.45
2022-10-05T22:17:09.835Z,1.50
2022-10-05T22:19:36.258Z,1.40
2022-10-05T22:22:02.659Z,1.20
2022-10-05T22:24:29.057Z,1.55
2022-10-05T22:26:55.466Z,1.30
2022-10-05T22:29:21.892Z,1.77
2022-10-05T22:31:48.390Z,1.75
2022-10-05T22:34:14.854Z,1.42
2022-10-05T22:36:41.242Z,1.27
2022-10-05T22:39:07.654Z,1.08
2022-10-05T22:41:34.042Z,1.25
2022-10-05T22:44:00.458Z,1.15
2022-10-05T22:46:26.868Z,1.50
2022-10-05T22:48:53.409Z,1.30
2022-10-05T22:51:19.794Z,1.40
2022-10-05T22:53:46.217Z,1.25
2022-10-05T22:56:12.609Z,1.20
2022-10-05T22:58:39.011Z,1.30
2022-10-05T23:01:05.467Z,1.20
2022-10-05T23:03:31.925Z,1.30
2022-10-05T23:05:58.297Z,1.27
2022-10-05T23:08:24.894Z,1.25
2022-10-05T23:10:51.568Z,0.95
2022-10-05T23:13:18.034Z,1.33
2022-10-05T23:15:44.413Z,1.30
2022-10-05T23:18:10.816Z,1.30
2022-10-05T23:20:37.205Z,1.40
2022-10-05T23:23:03.607Z,1.25
2022-10-05T23:25:29.985Z,1.20
2022-10-05T23:27:56.409Z,1.10
2022-10-05T23:30:22.829Z,1.10
2022-10-05T23:32:49.217Z,1.17
2022-10-05T23:35:15.618Z,1.20
2022-10-05T23:37:41.997Z,1.00
2022-10-05T23:40:08.397Z,1.20
2022-10-05T23:42:34.786Z,1.20
2022-10-05T23:45:01.181Z,1.15
2022-10-05T23:47:27.577Z,1.08
2022-10-05T23:49:53.984Z,1.10
2022-10-05T23:52:20.363Z,1.00
2022-10-05T23:54:46.759Z,1.45
2022-10-05T23:57:13.143Z,1.20
2022-10-05T23:59:39.554Z,1.02
